createdAt,value
2023-01-07T00:01:21.896Z,1.08
2023-01-07T00:03:48.991Z,1.13
2023-01-07T00:06:16.359Z,1.23
2023-01-07T00:08:43.649Z,1.30
2023-01-07T00:11:11.759Z,1.17
2023-01-07T00:13:38.177Z,0.90
2023-01-07T00:16:06.301Z,1.20
2023-01-07T00:18:32.972Z,1.23
2023-01-07T00:20:59.884Z,1.30
2023-01-07T00:23:26.862Z,1.40
2023-01-07T00:25:58.945Z,1.65
2023-01-07T00:28:25.123Z,1.90
2023-01-07T00:30:51.337Z,1.50
2023-01-07T00:33:18.162Z,1.50
2023-01-07T00:35:47.455Z,1.77
2023-01-07T00:38:13.733Z,1.45
2023-01-07T00:40:39.950Z,1.65
2023-01-07T00:43:06.821Z,1.70
2023-01-07T00:45:35.009Z,1.52
2023-01-07T00:48:01.768Z,1.70
2023-01-07T00:50:29.615Z,1.60
2023-01-07T00:52:56.211Z,1.58
2023-01-07T00:55:23.093Z,1.70
2023-01-07T00:57:49.402Z,1.58
2023-01-07T01:00:16.760Z,1.60
2023-01-07T01:02:43.346Z,2.13
2023-01-07T01:05:10.129Z,1.50
2023-01-07T01:07:36.412Z,1.80
2023-01-07T01:10:03.335Z,1.50
2023-01-07T01:12:29.580Z,1.60
2023-01-07T01:14:55.797Z,1.50
2023-01-07T01:17:22.478Z,1.42
2023-01-07T01:19:48.824Z,1.35
2023-01-07T01:22:15.012Z,1.33
2023-01-07T01:24:41.235Z,1.65
2023-01-07T01:27:07.449Z,1.60
2023-01-07T01:29:33.692Z,1.50
2023-01-07T01:32:00.919Z,1.50
2023-01-07T01:34:27.197Z,1.60
2023-01-07T01:36:53.444Z,1.52
2023-01-07T01:39:20.405Z,1.50
2023-01-07T01:41:47.364Z,1.50
2023-01-07T01:44:32.379Z,1.60
2023-01-07T01:46:58.760Z,1.83
2023-01-07T01:49:32.847Z,1.60
2023-01-07T01:52:02.021Z,1.50
2023-01-07T01:54:28.265Z,1.65
2023-01-07T01:56:55.629Z,1.65
2023-01-07T01:59:23.654Z,1.63
2023-01-07T02:01:50.009Z,1.83
2023-01-07T02:04:17.968Z,1.67
2023-01-07T02:06:50.444Z,1.77
2023-01-07T02:09:16.638Z,1.52
2023-01-07T02:11:42.824Z,1.65
2023-01-07T02:14:27.627Z,1.40
2023-01-07T02:17:00.365Z,1.50
2023-01-07T02:19:37.568Z,1.60
2023-01-07T02:22:22.611Z,1.70
2023-01-07T02:24:54.856Z,1.58
2023-01-07T02:27:39.187Z,1.80
2023-01-07T02:30:05.413Z,1.50
2023-01-07T02:32:50.327Z,1.70
2023-01-07T02:35:28.653Z,1.65
2023-01-07T02:38:12.978Z,1.70
2023-01-07T02:40:44.072Z,1.80
2023-01-07T02:43:16.949Z,1.50
2023-01-07T02:45:46.570Z,1.60
2023-01-07T02:48:13.923Z,1.40
2023-01-07T02:50:40.131Z,1.40
2023-01-07T02:53:07.971Z,1.50
2023-01-07T02:55:43.523Z,1.48
2023-01-07T02:58:29.043Z,1.40
2023-01-07T03:01:18.328Z,1.55
2023-01-07T03:03:52.017Z,1.50
2023-01-07T03:06:30.353Z,1.50
2023-01-07T03:09:04.157Z,1.27
2023-01-07T03:11:34.415Z,1.65
2023-01-07T03:14:03.810Z,1.42
2023-01-07T03:16:33.429Z,1.40
2023-01-07T03:19:01.076Z,1.20
2023-01-07T03:21:28.336Z,1.70
2023-01-07T03:23:55.973Z,1.48
2023-01-07T03:26:23.773Z,1.50
2023-01-07T03:28:51.383Z,1.70
2023-01-07T03:31:19.098Z,1.40
2023-01-07T03:33:54.155Z,1.50
2023-01-07T03:36:22.807Z,1.40
2023-01-07T03:38:50.410Z,1.40
2023-01-07T03:41:36.733Z,1.73
2023-01-07T03:44:02.976Z,1.40
2023-01-07T03:46:29.287Z,1.55
2023-01-07T03:48:55.567Z,1.40
2023-01-07T03:51:21.766Z,1.20
2023-01-07T03:53:48.096Z,1.30
2023-01-07T03:56:14.352Z,1.50
2023-01-07T03:58:40.539Z,1.67
2023-01-07T04:01:06.901Z,1.80
2023-01-07T04:03:33.188Z,1.60
2023-01-07T04:05:59.398Z,1.60
2023-01-07T04:08:25.575Z,1.95
2023-01-07T04:10:51.818Z,1.63
2023-01-07T04:13:18.048Z,2.08
2023-01-07T04:15:44.641Z,2.00
2023-01-07T04:18:10.907Z,1.92
2023-01-07T04:20:37.108Z,1.90
2023-01-07T04:23:03.333Z,1.70
2023-01-07T04:25:30.743Z,2.28
2023-01-07T04:27:56.944Z,2.10
2023-01-07T04:30:23.133Z,1.70
2023-01-07T04:32:49.424Z,2.00
2023-01-07T04:35:15.663Z,1.70
2023-01-07T04:37:41.865Z,1.90
2023-01-07T04:40:08.366Z,1.60
2023-01-07T04:42:34.584Z,1.77
2023-01-07T04:45:00.850Z,2.53
2023-01-07T04:47:27.038Z,1.80
2023-01-07T04:49:53.269Z,2.90
2023-01-07T04:52:19.498Z,6.20
2023-01-07T04:54:45.741Z,3.40
2023-01-07T04:57:11.939Z,2.80
2023-01-07T04:59:38.139Z,1.88
2023-01-07T05:02:04.444Z,1.70
2023-01-07T05:04:30.816Z,1.52
2023-01-07T05:06:57.049Z,1.60
2023-01-07T05:09:23.250Z,1.50
2023-01-07T05:11:49.520Z,1.70
2023-01-07T05:14:15.737Z,1.50
2023-01-07T05:16:42.055Z,1.60
2023-01-07T05:19:09.388Z,1.48
2023-01-07T05:21:35.626Z,1.90
2023-01-07T05:24:01.837Z,1.90
2023-01-07T05:26:28.084Z,2.50
2023-01-07T05:28:54.267Z,1.92
2023-01-07T05:31:20.603Z,1.90
2023-01-07T05:33:46.879Z,2.30
2023-01-07T05:36:13.192Z,2.40
2023-01-07T05:38:39.401Z,1.92
2023-01-07T05:41:05.608Z,2.28
2023-01-07T05:43:31.817Z,2.03
2023-01-07T05:45:59.065Z,2.25
2023-01-07T05:48:25.709Z,2.40
2023-01-07T05:50:51.912Z,2.10
2023-01-07T05:53:18.215Z,2.30
2023-01-07T05:55:44.489Z,2.10
2023-01-07T05:58:10.697Z,2.55
2023-01-07T06:00:37.003Z,2.40
2023-01-07T06:03:03.926Z,2.35
2023-01-07T06:05:30.341Z,2.53
2023-01-07T06:07:56.555Z,2.35
2023-01-07T06:10:22.777Z,2.78
2023-01-07T06:12:51.118Z,2.45
2023-01-07T06:15:17.673Z,2.60
2023-01-07T06:17:44.027Z,2.40
2023-01-07T06:20:10.637Z,2.75
2023-01-07T06:22:36.878Z,2.45
2023-01-07T06:25:03.564Z,2.13
2023-01-07T06:27:29.849Z,2.20
2023-01-07T06:29:56.080Z,2.40
2023-01-07T06:32:22.444Z,2.15
2023-01-07T06:34:48.648Z,2.53
2023-01-07T06:37:14.932Z,2.35
2023-01-07T06:39:41.147Z,2.10
2023-01-07T06:42:07.340Z,2.25
2023-01-07T06:44:33.754Z,2.30
2023-01-07T06:46:59.986Z,2.50
2023-01-07T06:49:26.162Z,2.08
2023-01-07T06:51:52.382Z,2.15
2023-01-07T06:54:18.577Z,1.67
2023-01-07T06:56:44.801Z,1.75
2023-01-07T06:59:11.256Z,1.60
2023-01-07T07:01:37.534Z,1.50
2023-01-07T07:04:03.907Z,1.60
2023-01-07T07:06:30.113Z,1.60
2023-01-07T07:08:56.311Z,1.67
2023-01-07T07:11:22.524Z,1.50
2023-01-07T07:13:48.914Z,1.60
2023-01-07T07:16:15.265Z,1.60
2023-01-07T07:18:41.508Z,1.60
2023-01-07T07:21:07.776Z,1.60
2023-01-07T07:23:34.025Z,1.58
2023-01-07T07:26:00.215Z,1.60
2023-01-07T07:28:26.404Z,1.65
2023-01-07T07:30:52.707Z,1.48
2023-01-07T07:33:19.392Z,1.40
2023-01-07T07:35:46.319Z,1.70
2023-01-07T07:38:12.590Z,1.60
2023-01-07T07:40:38.799Z,1.70
2023-01-07T07:43:11.994Z,1.40
2023-01-07T07:45:39.497Z,1.50
2023-01-07T07:48:07.084Z,1.73
2023-01-07T07:50:33.532Z,1.60
2023-01-07T07:52:59.724Z,1.40
2023-01-07T07:55:26.661Z,1.80
2023-01-07T07:57:56.494Z,1.60
2023-01-07T08:00:22.853Z,1.45
2023-01-07T08:02:49.155Z,1.83
2023-01-07T08:05:15.586Z,1.60
2023-01-07T08:07:42.336Z,1.55
2023-01-07T08:10:08.777Z,1.85
2023-01-07T08:12:38.632Z,1.63
2023-01-07T08:15:06.429Z,1.70
2023-01-07T08:17:32.677Z,1.75
2023-01-07T08:19:58.888Z,2.20
2023-01-07T08:22:25.084Z,2.20
2023-01-07T08:24:51.279Z,1.77
2023-01-07T08:27:17.474Z,2.30
2023-01-07T08:29:43.701Z,1.80
2023-01-07T08:32:10.186Z,1.83
2023-01-07T08:34:36.392Z,2.10
2023-01-07T08:37:02.635Z,2.10
2023-01-07T08:39:28.869Z,1.88
2023-01-07T08:41:55.289Z,1.80
2023-01-07T08:44:21.504Z,1.95
2023-01-07T08:46:47.861Z,1.88
2023-01-07T08:49:14.099Z,2.47
2023-01-07T08:51:40.298Z,2.20
2023-01-07T08:54:06.534Z,1.98
2023-01-07T08:56:33.559Z,2.05
2023-01-07T08:59:00.103Z,2.38
2023-01-07T09:01:26.389Z,2.30
2023-01-07T09:03:52.742Z,2.53
2023-01-07T09:06:19.146Z,1.90
2023-01-07T09:08:45.449Z,1.85
2023-01-07T09:11:11.708Z,1.90
2023-01-07T09:13:37.904Z,2.10
2023-01-07T09:16:04.285Z,2.33
2023-01-07T09:18:30.641Z,2.05
2023-01-07T09:20:56.897Z,2.30
2023-01-07T09:23:23.107Z,2.40
2023-01-07T09:25:49.351Z,1.98
2023-01-07T09:28:15.562Z,2.22
2023-01-07T09:30:41.849Z,2.47
2023-01-07T09:33:08.096Z,2.45
2023-01-07T09:35:34.412Z,2.55
2023-01-07T09:38:00.598Z,2.70
2023-01-07T09:40:28.092Z,2.20
2023-01-07T09:43:15.889Z,2.80
2023-01-07T09:45:47.104Z,2.88
2023-01-07T09:48:23.320Z,2.95
2023-01-07T09:50:55.382Z,3.38
2023-01-07T09:53:24.477Z,2.95
2023-01-07T09:56:10.763Z,3.30
2023-01-07T09:58:38.559Z,3.58
2023-01-07T10:01:09.749Z,3.35
2023-01-07T10:03:44.977Z,3.20
2023-01-07T10:06:14.440Z,3.47
2023-01-07T10:08:44.722Z,3.47
2023-01-07T10:11:19.827Z,4.25
2023-01-07T10:13:54.708Z,4.07
2023-01-07T10:16:20.996Z,4.15
2023-01-07T10:19:00.728Z,4.50
2023-01-07T10:21:33.089Z,4.40
2023-01-07T10:24:03.159Z,4.10
2023-01-07T10:26:35.391Z,4.32
2023-01-07T10:29:16.145Z,4.03
2023-01-07T10:31:43.506Z,5.97
2023-01-07T10:34:13.407Z,4.82
2023-01-07T10:36:44.558Z,4.47
2023-01-07T10:39:10.725Z,4.90
2023-01-07T10:41:46.279Z,4.22
2023-01-07T10:44:30.992Z,4.30
2023-01-07T10:47:15.096Z,4.35
2023-01-07T10:49:47.990Z,4.30
2023-01-07T10:52:30.554Z,4.28
2023-01-07T10:55:05.847Z,4.78
2023-01-07T10:57:33.061Z,4.65
2023-01-07T11:00:04.424Z,4.07
2023-01-07T11:02:30.898Z,4.03
2023-01-07T11:04:58.360Z,4.35
2023-01-07T11:07:30.012Z,4.47
2023-01-07T11:09:56.755Z,3.90
2023-01-07T11:12:32.100Z,4.15
2023-01-07T11:14:59.708Z,3.95
2023-01-07T11:17:32.604Z,3.78
2023-01-07T11:19:58.909Z,3.63
2023-01-07T11:22:25.081Z,2.90
2023-01-07T11:24:51.565Z,2.97
2023-01-07T11:27:18.805Z,2.88
2023-01-07T11:29:46.674Z,3.50
2023-01-07T11:32:22.161Z,3.00
2023-01-07T11:34:51.518Z,2.80
2023-01-07T11:37:50.527Z,2.53
2023-01-07T11:40:27.124Z,2.08
2023-01-07T11:42:57.738Z,2.10
2023-01-07T11:45:28.074Z,2.42
2023-01-07T11:48:17.640Z,2.35
2023-01-07T11:50:53.108Z,2.15
2023-01-07T11:53:19.270Z,2.00
2023-01-07T11:56:04.429Z,2.40
2023-01-07T11:58:35.824Z,2.10
2023-01-07T12:01:02.047Z,2.30
2023-01-07T12:03:28.395Z,2.05
2023-01-07T12:05:58.480Z,2.58
2023-01-07T12:08:27.092Z,2.38
2023-01-07T12:10:54.408Z,2.00
2023-01-07T12:13:23.281Z,1.98
2023-01-07T12:15:51.703Z,1.80
2023-01-07T12:18:44.326Z,1.90
2023-01-07T12:21:32.289Z,2.40
2023-01-07T12:24:11.974Z,2.10
2023-01-07T12:26:46.063Z,2.10
2023-01-07T12:29:21.922Z,1.85
2023-01-07T12:32:06.688Z,1.70
2023-01-07T12:34:48.058Z,1.70
2023-01-07T12:37:29.404Z,1.75
2023-01-07T12:39:57.789Z,2.28
2023-01-07T12:42:26.206Z,2.30
2023-01-07T12:44:56.584Z,1.85
2023-01-07T12:47:37.283Z,1.75
2023-01-07T12:50:25.304Z,1.70
2023-01-07T12:53:00.694Z,1.55
2023-01-07T12:55:33.622Z,1.70
2023-01-07T12:58:03.662Z,1.67
2023-01-07T13:00:31.718Z,1.60
2023-01-07T13:03:10.101Z,1.48
2023-01-07T13:05:38.116Z,1.80
2023-01-07T13:08:23.093Z,1.60
2023-01-07T13:10:51.612Z,1.55
2023-01-07T13:13:24.342Z,1.67
2023-01-07T13:15:50.917Z,1.75
2023-01-07T13:18:18.719Z,1.60
2023-01-07T13:21:03.780Z,1.98
2023-01-07T13:23:48.740Z,1.85
2023-01-07T13:26:20.901Z,1.80
2023-01-07T13:28:56.290Z,1.60
2023-01-07T13:31:22.765Z,1.60
2023-01-07T13:33:58.252Z,1.90
2023-01-07T13:36:37.331Z,1.73
2023-01-07T13:39:15.844Z,1.85
2023-01-07T13:41:50.643Z,1.95
2023-01-07T13:44:34.855Z,1.80
2023-01-07T13:47:02.515Z,1.83
2023-01-07T13:49:31.043Z,2.30
2023-01-07T13:52:11.641Z,1.95
2023-01-07T13:54:53.308Z,2.08
2023-01-07T13:59:49.397Z,1.73
2023-01-07T14:02:22.874Z,1.90
2023-01-07T14:05:04.688Z,1.73
2023-01-07T14:07:31.612Z,1.98
2023-01-07T14:09:58.242Z,1.90
2023-01-07T14:12:35.971Z,2.05
2023-01-07T14:15:12.613Z,2.00
2023-01-07T14:17:51.733Z,2.22
2023-01-07T14:20:36.661Z,2.05
2023-01-07T14:23:19.850Z,2.33
2023-01-07T14:25:52.418Z,2.20
2023-01-07T14:28:29.537Z,2.05
2023-01-07T14:30:56.137Z,2.05
2023-01-07T14:33:32.104Z,1.70
2023-01-07T14:35:59.799Z,2.53
2023-01-07T14:38:28.851Z,2.40
2023-01-07T14:41:11.551Z,2.33
2023-01-07T14:43:40.991Z,2.60
2023-01-07T14:46:07.833Z,2.40
2023-01-07T14:48:35.417Z,2.33
2023-01-07T14:51:15.518Z,2.05
2023-01-07T14:54:00.400Z,2.30
2023-01-07T14:56:45.260Z,2.45
2023-01-07T14:59:20.372Z,2.63
2023-01-07T15:01:46.688Z,2.40
2023-01-07T15:04:32.709Z,2.55
2023-01-07T15:06:59.607Z,2.20
2023-01-07T15:09:47.361Z,2.50
2023-01-07T15:12:37.617Z,2.53
2023-01-07T15:15:33.907Z,2.55
2023-01-07T15:18:00.173Z,2.33
2023-01-07T15:20:29.658Z,2.17
2023-01-07T15:23:11.769Z,2.58
2023-01-07T15:25:50.896Z,2.22
2023-01-07T16:38:51.288Z,3.10
2023-01-07T16:41:21.140Z,3.78
2023-01-07T16:43:47.402Z,3.40
2023-01-07T16:46:21.994Z,3.20
2023-01-07T16:49:08.171Z,3.92
2023-01-07T16:51:43.333Z,3.75
2023-01-07T16:54:24.681Z,3.22
2023-01-07T16:56:57.847Z,3.67
2023-01-07T16:59:25.961Z,3.35
2023-01-07T17:01:52.230Z,3.30
2023-01-07T17:04:27.800Z,2.85
2023-01-07T17:06:54.114Z,3.20
2023-01-07T17:09:36.826Z,4.63
2023-01-07T17:12:03.537Z,4.40
2023-01-07T17:14:32.804Z,5.45
2023-01-07T17:17:02.810Z,3.90
2023-01-07T17:19:42.218Z,4.22
2023-01-07T17:22:27.046Z,3.63
2023-01-07T17:24:53.436Z,3.90
2023-01-07T17:27:22.409Z,3.53
2023-01-07T17:29:49.838Z,3.80
2023-01-07T17:32:16.074Z,3.30
2023-01-07T17:34:42.342Z,4.00
2023-01-07T17:37:15.507Z,4.05
2023-01-07T17:39:42.007Z,4.00
2023-01-07T17:42:39.092Z,4.00
2023-01-07T17:45:05.636Z,3.95
2023-01-07T17:47:32.266Z,4.03
2023-01-07T17:49:58.757Z,3.88
2023-01-07T17:52:25.039Z,4.30
2023-01-07T17:54:51.268Z,4.82
2023-01-07T17:57:17.569Z,4.05
2023-01-07T17:59:47.767Z,4.60
2023-01-07T18:02:16.980Z,4.10
2023-01-07T18:04:43.325Z,4.13
2023-01-07T18:07:13.299Z,3.85
2023-01-07T18:09:42.159Z,4.05
2023-01-07T18:12:34.480Z,3.70
2023-01-07T18:15:01.497Z,4.13
2023-01-07T18:17:27.813Z,3.83
2023-01-07T18:19:54.426Z,3.92
2023-01-07T18:22:21.316Z,4.60
2023-01-07T18:24:48.018Z,4.05
2023-01-07T18:27:17.647Z,4.15
2023-01-07T18:29:43.914Z,3.95
2023-01-07T18:32:10.442Z,4.25
2023-01-07T18:34:36.702Z,4.57
2023-01-07T18:37:03.044Z,5.10
2023-01-07T18:39:29.272Z,6.40
2023-01-07T18:41:55.476Z,4.72
2023-01-07T18:44:22.716Z,4.93
2023-01-07T18:46:48.959Z,5.13
2023-01-07T18:49:15.464Z,4.43
2023-01-07T18:51:41.663Z,4.90
2023-01-07T18:54:07.848Z,4.00
2023-01-07T18:56:34.057Z,3.88
2023-01-07T18:59:00.266Z,3.92
2023-01-07T19:01:26.611Z,4.63
2023-01-07T19:03:52.947Z,4.45
2023-01-07T19:06:19.194Z,4.43
2023-01-07T19:08:45.432Z,4.00
2023-01-07T19:11:12.728Z,4.28
2023-01-07T19:13:39.557Z,5.15
2023-01-07T19:16:10.106Z,5.07
2023-01-07T19:18:36.492Z,4.00
2023-01-07T19:21:07.200Z,4.72
2023-01-07T19:23:33.457Z,4.27
2023-01-07T19:26:01.044Z,5.03
2023-01-07T19:28:27.714Z,5.55
2023-01-07T19:30:54.674Z,4.88
2023-01-07T19:33:21.365Z,4.97
2023-01-07T19:35:47.590Z,5.53
2023-01-07T19:38:13.965Z,5.50
2023-01-07T19:40:44.011Z,5.57
2023-01-07T19:43:11.415Z,5.10
2023-01-07T19:45:37.672Z,5.85
2023-01-07T19:48:03.909Z,5.63
2023-01-07T19:50:30.152Z,5.70
2023-01-07T19:52:56.353Z,5.68
2023-01-07T19:55:24.181Z,4.68
2023-01-07T19:57:50.373Z,4.30
2023-01-07T20:00:16.747Z,4.03
2023-01-07T20:02:42.987Z,4.63
2023-01-07T20:05:09.373Z,3.88
2023-01-07T20:07:35.577Z,3.83
2023-01-07T20:10:01.798Z,3.13
2023-01-07T20:12:28.030Z,3.85
2023-01-07T20:14:54.272Z,3.05
2023-01-07T20:17:20.735Z,3.25
2023-01-07T20:19:46.996Z,3.53
2023-01-07T20:22:13.223Z,2.83
2023-01-07T20:24:39.611Z,2.95
2023-01-07T20:27:05.839Z,3.40
2023-01-07T20:29:32.100Z,3.30
2023-01-07T20:31:58.431Z,3.10
2023-01-07T20:34:24.640Z,3.20
2023-01-07T20:36:50.913Z,3.33
2023-01-07T20:39:17.141Z,3.28
2023-01-07T20:41:43.851Z,3.13
2023-01-07T20:44:10.964Z,2.88
2023-01-07T20:46:39.007Z,2.90
2023-01-07T20:49:05.243Z,3.00
2023-01-07T20:51:31.730Z,3.30
2023-01-07T20:53:58.013Z,2.75
2023-01-07T20:56:24.710Z,2.40
2023-01-07T20:58:51.134Z,3.38
2023-01-07T21:01:18.712Z,3.15
2023-01-07T21:03:45.688Z,2.90
2023-01-07T21:06:12.916Z,2.60
2023-01-07T21:08:39.730Z,3.22
2023-01-07T21:11:12.899Z,3.00
2023-01-07T21:13:39.129Z,2.55
2023-01-07T21:16:05.689Z,2.60
2023-01-07T21:18:32.508Z,2.97
2023-01-07T21:20:59.267Z,3.03
2023-01-07T21:23:26.426Z,2.72
2023-01-07T21:25:52.849Z,2.85
2023-01-07T21:28:19.047Z,2.67
2023-01-07T21:30:45.251Z,2.92
2023-01-07T21:33:11.432Z,2.40
2023-01-07T21:35:41.163Z,2.50
2023-01-07T21:38:07.427Z,2.67
2023-01-07T21:40:33.794Z,2.50
2023-01-07T21:43:00.010Z,2.50
2023-01-07T21:45:26.238Z,2.78
2023-01-07T21:47:52.420Z,2.70
2023-01-07T21:50:18.658Z,2.70
2023-01-07T21:52:44.865Z,2.58
2023-01-07T21:55:11.116Z,3.08
2023-01-07T21:57:37.695Z,3.20
2023-01-07T22:00:05.140Z,2.90
2023-01-07T22:02:31.354Z,2.67
2023-01-07T22:04:57.553Z,3.05
2023-01-07T22:07:23.793Z,2.92
2023-01-07T22:09:49.977Z,3.05
2023-01-07T22:12:16.236Z,2.40
2023-01-07T22:14:42.472Z,2.53
2023-01-07T22:17:09.432Z,2.60
2023-01-07T22:19:35.612Z,2.63
2023-01-07T22:22:01.859Z,2.67
2023-01-07T22:24:28.086Z,3.05
2023-01-07T22:26:55.094Z,3.00
2023-01-07T22:29:21.299Z,2.92
2023-01-07T22:31:49.583Z,2.75
2023-01-07T22:34:16.110Z,2.70
2023-01-07T22:36:46.336Z,2.38
2023-01-07T22:39:15.368Z,2.75
2023-01-07T22:41:41.610Z,2.90
2023-01-07T22:44:10.933Z,2.70
2023-01-07T22:46:37.982Z,2.38
2023-01-07T22:49:04.189Z,2.80
2023-01-07T22:51:34.300Z,2.58
2023-01-07T22:54:00.564Z,2.90
2023-01-07T22:56:27.207Z,2.58
2023-01-07T22:58:53.596Z,2.80
2023-01-07T23:01:19.970Z,2.83
2023-01-07T23:03:46.512Z,2.40
2023-01-07T23:06:14.324Z,2.80
2023-01-07T23:08:40.844Z,2.80
2023-01-07T23:11:07.460Z,2.67
2023-01-07T23:13:34.309Z,2.35
2023-01-07T23:16:04.462Z,2.92
2023-01-07T23:18:30.773Z,2.70
2023-01-07T23:20:57.156Z,2.47
2023-01-07T23:23:23.658Z,2.30
2023-01-07T23:25:50.772Z,2.20
2023-01-07T23:28:17.772Z,2.50
2023-01-07T23:30:44.403Z,2.15
2023-01-07T23:33:10.670Z,2.25
2023-01-07T23:35:36.922Z,2.10
2023-01-07T23:38:03.916Z,2.40
2023-01-07T23:40:30.209Z,2.08
2023-01-07T23:42:57.722Z,2.20
2023-01-07T23:45:24.080Z,2.17
2023-01-07T23:47:50.304Z,2.10
2023-01-07T23:50:16.562Z,2.30
2023-01-07T23:52:42.757Z,2.00
2023-01-07T23:55:09.277Z,2.05
2023-01-07T23:57:35.500Z,1.90
